Time;durP1;ratioP1;P1;durP2;ratioP2;P2;SDS_P1;SDS_P2;PMS_P1;PMS_P2;Temp;Humidity;BMP_temperature;BMP_pressure;BME280_temperature;BME280_humidity;BME280_pressure;Samples;Min_cycle;Max_cycle;Signal;HPM_P1;HPM_P2
2021/06/06 00:01:17;;;;;;;14.58;9.13;;;;;;;14.20;77.07;100616.92;1849079;77;20990;-75
2021/06/06 00:03:48;;;;;;;16.00;8.98;;;;;;;14.18;77.17;100621.47;1849157;77;21731;-75
2021/06/06 00:06:19;;;;;;;18.17;9.48;;;;;;;14.15;77.26;100613.80;1849418;77;20869;-75
2021/06/06 00:08:46;;;;;;;16.77;8.40;;;;;;;14.11;77.16;100618.93;1848715;77;20877;-74
2021/06/06 00:11:21;;;;;;;16.48;8.78;;;;;;;14.10;77.17;100614.14;1849110;77;20831;-74
2021/06/06 00:13:52;;;;;;;12.03;7.75;;;;;;;14.09;77.03;100611.61;1849255;76;20952;-75
2021/06/06 00:16:40;;;;;;;21.42;9.10;;;;;;;14.07;76.97;100613.52;1849266;77;20870;-75
2021/06/06 00:19:07;;;;;;;17.40;8.58;;;;;;;14.04;77.06;100613.77;1849043;77;20850;-75
2021/06/06 00:21:36;;;;;;;13.58;8.33;;;;;;;14.01;77.16;100614.00;1849527;77;20941;-74
2021/06/06 00:24:06;;;;;;;14.45;8.40;;;;;;;13.98;77.22;100611.57;1849497;77;20921;-73
2021/06/06 00:26:33;;;;;;;21.02;8.83;;;;;;;13.90;77.29;100616.11;1851490;77;20896;-74
2021/06/06 00:29:00;;;;;;;17.62;8.10;;;;;;;13.82;77.61;100614.02;1852006;77;21074;-73
2021/06/06 00:31:27;;;;;;;12.75;7.78;;;;;;;13.79;77.81;100614.75;1851636;77;21035;-73
2021/06/06 00:33:53;;;;;;;21.15;9.10;;;;;;;13.81;77.74;100618.11;1850591;76;20881;-73
2021/06/06 00:36:21;;;;;;;14.93;8.08;;;;;;;13.82;77.85;100620.61;1852139;77;21087;-74
2021/06/06 00:38:48;;;;;;;17.50;9.30;;;;;;;13.82;77.96;100615.34;1849355;77;20909;-74
2021/06/06 00:41:18;;;;;;;14.23;8.55;;;;;;;13.81;77.98;100613.67;1849667;77;21327;-73
2021/06/06 00:43:46;;;;;;;19.37;8.68;;;;;;;13.81;77.71;100611.52;1849234;77;20948;-74
2021/06/06 00:46:16;;;;;;;16.17;8.60;;;;;;;13.78;77.82;100607.77;1835055;77;20871;-74
2021/06/06 00:48:43;;;;;;;27.77;10.75;;;;;;;13.77;77.89;100609.58;1834668;77;20847;-74
2021/06/06 00:51:24;;;;;;;15.05;9.35;;;;;;;13.79;77.91;100601.56;1834706;76;21017;-75
2021/06/06 00:53:56;;;;;;;15.32;9.65;;;;;;;13.79;78.04;100602.41;1835111;77;21112;-76
2021/06/06 00:56:25;;;;;;;16.75;9.18;;;;;;;13.79;78.09;100602.88;1835083;76;20894;-75
2021/06/06 00:58:56;;;;;;;15.63;8.28;;;;;;;13.81;78.09;100612.84;1834857;78;21399;-75
2021/06/06 01:01:26;;;;;;;14.05;9.00;;;;;;;13.81;78.22;100608.89;1835112;77;20871;-73
2021/06/06 01:03:56;;;;;;;11.78;8.63;;;;;;;13.80;78.25;100613.78;1834888;77;20907;-75
2021/06/06 01:06:33;;;;;;;12.37;8.83;;;;;;;13.78;78.25;100605.97;1834911;78;21135;-75
2021/06/06 01:09:01;;;;;;;18.80;9.28;;;;;;;13.78;78.29;100604.66;1835206;76;20962;-76
2021/06/06 01:12:09;;;;;;;17.15;8.25;;;;;;;13.78;78.37;100602.02;1835067;77;20922;-75
2021/06/06 01:15:15;;;;;;;11.88;7.40;;;;;;;13.77;78.19;100599.52;1833615;78;20890;-75
2021/06/06 01:18:11;;;;;;;17.27;8.73;;;;;;;13.76;78.10;100597.82;1834972;77;20840;-76
2021/06/06 01:21:03;;;;;;;14.53;8.33;;;;;;;13.65;78.18;100589.38;1834885;77;20926;-75
2021/06/06 01:24:00;;;;;;;14.05;7.85;;;;;;;13.61;78.55;100600.64;1834754;77;20907;-75
2021/06/06 01:26:42;;;;;;;13.35;8.90;;;;;;;13.56;78.98;100592.24;1834692;77;20911;-76
2021/06/06 01:29:33;;;;;;;14.10;8.38;;;;;;;13.56;79.20;100589.61;1833729;77;21501;-75
2021/06/06 01:32:05;;;;;;;9.43;8.20;;;;;;;13.61;79.27;100598.01;1816625;77;20911;-76
2021/06/06 01:34:33;;;;;;;15.10;8.30;;;;;;;13.64;79.02;100599.57;1835243;77;21132;-76
2021/06/06 01:37:09;;;;;;;11.90;7.92;;;;;;;13.66;78.96;100597.67;1835082;77;20907;-75
2021/06/06 01:39:49;;;;;;;13.10;6.90;;;;;;;13.68;78.98;100596.59;1834616;76;20887;-76
2021/06/06 01:42:34;;;;;;;18.42;7.85;;;;;;;13.68;78.94;100593.96;1834810;77;20953;-75
2021/06/06 01:45:07;;;;;;;14.68;8.53;;;;;;;13.69;79.02;100593.48;1840204;77;20854;-74
2021/06/06 01:47:34;;;;;;;16.93;7.87;;;;;;;13.70;79.05;100591.70;1849372;77;21183;-75
2021/06/06 01:50:10;;;;;;;13.15;7.87;;;;;;;13.69;78.97;100593.48;1849504;77;20917;-75
2021/06/06 01:52:37;;;;;;;16.48;8.03;;;;;;;13.70;78.89;100595.66;1849029;77;20920;-75
2021/06/06 01:55:12;;;;;;;10.98;7.62;;;;;;;13.68;78.65;100597.08;1851040;76;20866;-74
2021/06/06 01:57:42;;;;;;;13.98;7.62;;;;;;;13.61;78.73;100595.86;1848550;77;20830;-74
2021/06/06 02:00:19;;;;;;;14.35;7.70;;;;;;;13.53;79.17;100600.83;1849303;77;21137;-74
2021/06/06 02:02:46;;;;;;;9.20;7.60;;;;;;;13.54;79.58;100597.23;1847368;76;20881;-74
2021/06/06 02:05:15;;;;;;;14.58;7.85;;;;;;;13.58;79.69;100601.33;1848954;77;20957;-74
2021/06/06 02:07:45;;;;;;;22.05;8.00;;;;;;;13.62;79.57;100600.99;1849269;77;20924;-75
2021/06/06 02:10:29;;;;;;;12.00;8.68;;;;;;;13.66;79.46;100601.14;1849357;76;20881;-74
2021/06/06 02:13:23;;;;;;;13.43;8.40;;;;;;;13.70;79.33;100598.30;1849513;77;22136;-75
2021/06/06 02:15:56;;;;;;;11.18;7.10;;;;;;;13.72;79.01;100593.27;1849112;77;20866;-74
2021/06/06 02:18:27;;;;;;;;;;;;;;;13.76;78.83;100601.32;1852075;77;20834;-74
2021/06/06 02:20:55;;;;;;;13.20;7.35;;;;;;;13.78;78.86;100602.02;1849257;77;20068;-75
2021/06/06 02:23:28;;;;;;;10.60;7.17;;;;;;;13.82;78.91;100596.89;1849779;77;20865;-76
2021/06/06 02:26:04;;;;;;;11.22;7.12;;;;;;;13.84;78.77;100595.47;1851190;76;21122;-75
2021/06/06 02:28:48;;;;;;;10.63;7.70;;;;;;;13.82;79.04;100596.89;1848965;77;20905;-77
2021/06/06 02:31:39;;;;;;;16.15;7.62;;;;;;;13.87;79.13;100606.64;1849894;77;20871;-73
2021/06/06 02:34:13;;;;;;;15.03;6.70;;;;;;;13.95;79.18;100605.22;1846384;77;20930;-75
2021/06/06 02:36:43;;;;;;;12.20;8.00;;;;;;;14.00;79.07;100603.08;1850428;77;20889;-75
2021/06/06 02:39:30;;;;;;;13.93;7.50;;;;;;;14.05;79.00;100601.79;1825628;77;21125;-75
2021/06/06 02:42:09;;;;;;;8.68;6.50;;;;;;;14.14;78.92;100604.67;1851106;77;21011;-75
2021/06/06 02:44:57;;;;;;;13.75;7.53;;;;;;;14.19;78.79;100598.11;1849258;77;20976;-72
2021/06/06 02:47:35;;;;;;;19.90;7.35;;;;;;;14.25;78.77;100600.74;1834730;77;20850;-74
2021/06/06 02:50:24;;;;;;;10.85;7.33;;;;;;;14.29;78.60;100599.10;1851374;77;20842;-72
2021/06/06 02:52:57;;;;;;;11.15;7.72;;;;;;;14.35;78.55;100595.63;1851626;77;21132;-72
2021/06/06 02:55:33;;;;;;;9.95;7.97;;;;;;;14.42;78.43;100598.16;1850809;77;20820;-73
2021/06/06 02:58:07;;;;;;;9.65;6.55;;;;;;;14.49;78.35;100598.03;1852148;77;20838;-76
2021/06/06 03:00:42;;;;;;;13.98;7.78;;;;;;;14.56;78.37;100603.72;1852989;76;20881;-74
2021/06/06 03:03:32;;;;;;;15.80;7.70;;;;;;;14.62;78.33;100605.89;1798834;77;20929;-77
2021/06/06 03:06:02;;;;;;;11.35;6.67;;;;;;;14.68;78.29;100604.94;1852156;77;21099;-76
2021/06/06 03:08:32;;;;;;;13.75;7.25;;;;;;;14.76;78.30;100599.53;1852329;77;20873;-76
2021/06/06 03:11:06;;;;;;;10.58;7.50;;;;;;;14.85;78.22;100600.99;1854765;76;20894;-74
2021/06/06 03:13:42;;;;;;;13.98;8.08;;;;;;;14.95;78.03;100602.42;1852849;77;20948;-74
2021/06/06 03:16:11;;;;;;;15.18;7.08;;;;;;;15.03;77.88;100597.38;1851545;77;20818;-74
2021/06/06 03:18:40;;;;;;;13.05;6.85;;;;;;;15.15;77.73;100594.23;1849068;76;21140;-74
2021/06/06 03:21:18;;;;;;;14.98;7.00;;;;;;;15.27;77.47;100595.91;1851340;77;20909;-76
2021/06/06 03:24:03;;;;;;;8.93;6.20;;;;;;;15.40;77.17;100597.55;1851768;77;20964;-76
2021/06/06 03:26:34;;;;;;;13.35;6.50;;;;;;;15.58;76.38;100590.77;1850358;77;20944;-77
2021/06/06 03:29:06;;;;;;;14.35;6.87;;;;;;;15.58;76.38;100590.77;1850472;77;20868;-75
2021/06/06 03:31:42;;;;;;;16.35;7.87;;;;;;;15.66;76.36;100594.95;1849848;77;21081;-76
2021/06/06 03:34:10;;;;;;;12.70;7.20;;;;;;;15.81;76.32;100586.75;1849514;77;21319;-75
2021/06/06 03:36:45;;;;;;;;;;;;;;;15.81;76.32;100586.75;1852632;76;20846;-76
2021/06/06 03:39:19;;;;;;;15.25;7.50;;;;;;;15.92;76.03;100585.41;1848793;77;20389;-77
2021/06/06 03:41:46;;;;;;;11.90;9.28;;;;;;;16.01;75.84;100583.77;1849378;77;20862;-76
2021/06/06 03:44:14;;;;;;;9.80;7.87;;;;;;;16.21;74.95;100582.09;1849599;77;21800;-76
2021/06/06 03:46:41;;;;;;;16.15;9.95;;;;;;;16.30;74.51;100577.38;1837460;75;20911;-76
2021/06/06 03:49:09;;;;;;;14.45;8.88;;;;;;;16.38;74.59;100569.60;1834910;77;21392;-76
2021/06/06 03:51:37;;;;;;;10.43;8.00;;;;;;;16.38;74.59;100569.60;1834757;77;20902;-76
2021/06/06 03:54:10;;;;;;;13.32;8.83;;;;;;;16.50;74.03;100575.67;1834701;77;20867;-76
2021/06/06 03:56:35;;;;;;;12.13;8.23;;;;;;;16.57;73.78;100572.84;1834617;77;21092;-76
2021/06/06 03:59:03;;;;;;;10.70;8.10;;;;;;;16.66;73.49;100568.57;1835005;77;20848;-74
2021/06/06 04:01:31;;;;;;;11.90;8.03;;;;;;;16.78;73.29;100574.11;1834660;76;20879;-75
2021/06/06 04:03:59;;;;;;;12.07;8.33;;;;;;;17.04;72.68;100571.88;1834759;77;20974;-75
2021/06/06 04:06:27;;;;;;;13.13;8.03;;;;;;;17.04;72.68;100571.88;1835376;77;20884;-74
2021/06/06 04:08:56;;;;;;;12.60;7.58;;;;;;;17.29;71.92;100581.12;1835376;77;20859;-72
2021/06/06 04:11:23;;;;;;;14.43;7.60;;;;;;;17.61;71.36;100576.93;1838114;77;20899;-73
2021/06/06 04:13:52;;;;;;;11.95;6.08;;;;;;;18.04;70.39;100576.17;1836939;76;20907;-74
2021/06/06 04:16:20;;;;;;;14.60;5.55;;;;;;;18.54;68.90;100579.92;1836502;76;20922;-73
2021/06/06 04:18:48;;;;;;;9.18;4.30;;;;;;;19.08;67.21;100573.49;1836915;77;20970;-70
2021/06/06 04:21:21;;;;;;;10.72;4.25;;;;;;;19.59;64.40;100573.37;1837060;78;21091;-74
2021/06/06 04:23:49;;;;;;;11.95;3.80;;;;;;;20.01;62.54;100576.75;1834972;77;20950;-74
2021/06/06 04:26:18;;;;;;;7.05;4.37;;;;;;;20.41;61.20;100571.84;1834838;77;20828;-73
2021/06/06 04:28:46;;;;;;;7.83;3.52;;;;;;;20.78;60.14;100578.24;1834651;77;20878;-74
2021/06/06 04:31:15;;;;;;;4.40;3.60;;;;;;;21.01;58.30;100581.19;1834197;76;20985;-74
2021/06/06 04:33:44;;;;;;;7.03;3.60;;;;;;;21.22;57.49;100578.08;1834725;76;21063;-75
2021/06/06 04:36:12;;;;;;;5.62;3.33;;;;;;;21.31;57.16;100577.61;1834602;77;21400;-74
2021/06/06 04:38:39;;;;;;;8.98;4.00;;;;;;;21.41;57.01;100573.00;1834678;78;20997;-74
2021/06/06 04:41:11;;;;;;;7.17;3.92;;;;;;;21.58;56.90;100577.02;1834495;77;20977;-76
2021/06/06 04:43:39;;;;;;;6.03;3.22;;;;;;;21.70;55.01;100574.38;1834573;77;20926;-75
2021/06/06 04:46:08;;;;;;;4.15;2.95;;;;;;;21.82;54.25;100577.04;1810177;77;21807;-74
2021/06/06 04:48:39;;;;;;;6.12;2.70;;;;;;;22.03;54.32;100575.22;1829188;78;21389;-74
2021/06/06 04:51:10;;;;;;;7.25;2.47;;;;;;;22.39;54.23;100573.53;1829448;77;21030;-75
2021/06/06 04:53:40;;;;;;;5.15;2.40;;;;;;;22.83;53.00;100572.20;1829297;77;21019;-73
2021/06/06 04:56:10;;;;;;;4.50;2.27;;;;;;;23.25;51.85;100569.70;1829024;78;20918;-73
2021/06/06 05:00:50;;;;;;;5.05;3.27;;;;;;;23.87;48.28;100570.13;1798901;79;22641;-73
2021/06/06 05:03:19;;;;;;;7.00;2.87;;;;;;;23.87;48.35;100567.45;1758467;81;20916;-74
2021/06/06 05:05:47;;;;;;;6.08;3.10;;;;;;;24.12;48.33;100567.58;1708181;82;21923;-74
2021/06/06 05:08:17;;;;;;;4.65;2.55;;;;;;;24.51;47.47;100572.41;1724999;83;21392;-74
2021/06/06 05:10:46;;;;;;;3.92;1.98;;;;;;;24.85;46.44;100569.14;1724865;82;21385;-73
2021/06/06 05:13:14;;;;;;;4.83;2.22;;;;;;;25.11;45.12;100567.81;1724803;83;20965;-73
2021/06/06 05:15:43;;;;;;;10.23;2.25;;;;;;;25.35;44.93;100563.98;1724612;83;21350;-74
2021/06/06 05:18:12;;;;;;;5.12;2.08;;;;;;;25.59;44.57;100558.24;1708376;82;21928;-74
2021/06/06 05:20:42;;;;;;;8.38;2.12;;;;;;;25.82;43.51;100557.20;1724864;83;20852;-73
2021/06/06 05:23:11;;;;;;;7.72;2.12;;;;;;;26.03;42.70;100557.20;1725111;83;20996;-73
2021/06/06 05:25:39;;;;;;;6.33;1.42;;;;;;;26.10;40.74;100560.44;1724944;82;20895;-73
2021/06/06 05:28:09;;;;;;;2.55;1.52;;;;;;;26.18;40.63;100562.47;1724872;83;20887;-70
2021/06/06 05:30:37;;;;;;;3.08;1.62;;;;;;;26.32;40.43;100560.69;1724955;81;21135;-74
2021/06/06 05:33:04;;;;;;;6.20;2.40;;;;;;;26.32;39.13;100561.21;1724782;83;21385;-74
2021/06/06 05:35:33;;;;;;;6.28;2.15;;;;;;;26.37;40.70;100562.30;1724484;81;21014;-74
2021/06/06 05:38:02;;;;;;;4.72;1.55;;;;;;;26.60;38.99;100561.22;1724899;83;21294;-79
2021/06/06 05:40:30;;;;;;;1.80;1.27;;;;;;;26.70;38.74;100561.66;1724885;83;20883;-74
2021/06/06 05:42:57;;;;;;;5.42;1.70;;;;;;;26.76;38.98;100554.14;1724853;82;21125;-74
2021/06/06 05:45:25;;;;;;;5.60;1.80;;;;;;;26.80;38.41;100553.23;1724775;83;20895;-74
2021/06/06 05:47:52;;;;;;;4.37;1.65;;;;;;;27.00;38.74;100550.62;1725055;83;20884;-73
2021/06/06 05:50:25;;;;;;;5.08;1.37;;;;;;;27.06;37.35;100547.95;1725170;81;21368;-73
2021/06/06 05:52:54;;;;;;;6.22;1.52;;;;;;;27.12;37.78;100549.52;1724105;81;20899;-73
2021/06/06 05:55:21;;;;;;;8.18;1.55;;;;;;;27.34;37.90;100558.31;1725035;83;21318;-74
2021/06/06 05:57:49;;;;;;;6.42;1.75;;;;;;;27.61;37.03;100557.30;1724877;83;20852;-74
2021/06/06 06:00:22;;;;;;;2.22;1.45;;;;;;;27.88;36.18;100554.16;1714998;83;21422;-74
2021/06/06 06:02:49;;;;;;;7.08;1.50;;;;;;;27.93;35.01;100552.19;1709673;82;20936;-74
2021/06/06 06:05:17;;;;;;;2.72;2.00;;;;;;;28.04;34.74;100548.03;1709484;84;21611;-73
2021/06/06 06:07:43;;;;;;;4.45;1.72;;;;;;;28.10;34.63;100548.03;1709692;83;21119;-72
2021/06/06 06:10:12;;;;;;;3.70;1.60;;;;;;;28.37;34.75;100540.39;1709404;84;21413;-72
2021/06/06 06:12:39;;;;;;;5.60;1.20;;;;;;;28.47;33.44;100544.84;1708891;84;20860;-75
2021/06/06 06:15:07;;;;;;;4.55;1.37;;;;;;;28.34;33.08;100537.59;1709236;84;20980;-75
2021/06/06 06:17:36;;;;;;;3.95;1.12;;;;;;;28.26;33.69;100537.84;1709025;82;20944;-73
2021/06/06 06:20:07;;;;;;;6.45;1.77;;;;;;;28.44;34.61;100543.39;1708811;84;21155;-73
2021/06/06 06:22:33;;;;;;;6.90;1.50;;;;;;;28.68;34.19;100539.70;1709166;82;20936;-74
2021/06/06 06:25:00;;;;;;;5.42;1.75;;;;;;;28.77;33.15;100542.49;1708963;84;20925;-74
2021/06/06 06:27:27;;;;;;;4.60;1.40;;;;;;;28.54;33.62;100541.63;1709163;83;20888;-75
2021/06/06 06:30:10;;;;;;;4.45;1.40;;;;;;;28.30;35.04;100537.70;1696730;83;20995;-74
2021/06/06 06:32:40;;;;;;;4.35;1.37;;;;;;;28.33;34.62;100541.87;1708891;82;21397;-75
2021/06/06 06:35:08;;;;;;;5.20;1.40;;;;;;;28.43;34.95;100532.28;1709122;84;20920;-73
2021/06/06 06:37:36;;;;;;;4.75;1.98;;;;;;;28.39;34.32;100530.22;1709452;84;21466;-75
2021/06/06 06:40:07;;;;;;;4.65;1.80;;;;;;;28.24;34.97;100531.30;1708800;84;21505;-74
2021/06/06 06:42:34;;;;;;;3.87;1.32;;;;;;;28.19;35.48;100525.72;1709022;82;20944;-74
2021/06/06 06:45:01;;;;;;;5.92;1.57;;;;;;;28.12;36.05;100527.58;1709123;84;21071;-75
2021/06/06 06:47:30;;;;;;;2.35;1.30;;;;;;;28.02;35.25;100522.63;1709007;84;20929;-74
2021/06/06 06:49:57;;;;;;;7.58;2.08;;;;;;;27.82;35.22;100517.74;1708869;84;21417;-75
2021/06/06 06:52:25;;;;;;;2.00;1.42;;;;;;;27.67;35.95;100524.67;1708844;84;20975;-75
2021/06/06 06:54:53;;;;;;;3.83;1.40;;;;;;;27.75;36.35;100526.32;1708586;82;21031;-75
2021/06/06 06:57:20;;;;;;;7.10;2.45;;;;;;;27.85;35.91;100521.39;1709185;84;21080;-76
2021/06/06 06:59:46;;;;;;;2.92;1.40;;;;;;;28.07;36.50;100519.30;1711270;82;20964;-76
2021/06/06 07:02:13;;;;;;;6.53;1.62;;;;;;;28.11;35.98;100524.05;1716522;83;20911;-75
2021/06/06 07:04:40;;;;;;;7.03;1.40;;;;;;;28.19;35.88;100520.33;1716551;83;20925;-74
2021/06/06 07:07:08;;;;;;;6.17;1.67;;;;;;;28.34;35.48;100517.89;1716876;83;20880;-74
2021/06/06 07:09:35;;;;;;;5.65;1.75;;;;;;;28.50;35.45;100520.15;1716491;83;21172;-75
2021/06/06 07:12:02;;;;;;;3.50;1.20;;;;;;;28.75;35.72;100521.63;1716723;83;20920;-75
2021/06/06 07:14:29;;;;;;;6.33;1.85;;;;;;;28.97;34.71;100526.20;1716411;83;20868;-75
2021/06/06 07:16:56;;;;;;;5.47;1.25;;;;;;;29.32;34.27;100523.10;1711676;83;21575;-75
2021/06/06 07:19:26;;;;;;;3.15;1.47;;;;;;;29.58;33.92;100522.09;1708927;82;20900;-75
2021/06/06 07:21:54;;;;;;;4.33;1.60;;;;;;;29.78;33.19;100516.55;1696091;83;21232;-74
2021/06/06 07:24:23;;;;;;;5.05;1.60;;;;;;;30.00;33.21;100520.21;1696106;83;20941;-74
2021/06/06 07:26:50;;;;;;;4.92;1.12;;;;;;;30.10;32.51;100521.86;1696540;84;21339;-75
2021/06/06 07:29:21;;;;;;;2.02;1.22;;;;;;;30.04;31.94;100527.66;1696141;83;20920;-76
2021/06/06 07:31:48;;;;;;;7.85;1.37;;;;;;;29.93;32.53;100525.68;1696370;84;20912;-75
2021/06/06 07:34:16;;;;;;;6.12;1.87;;;;;;;29.90;32.68;100528.31;1696244;84;21144;-75
2021/06/06 07:36:44;;;;;;;7.58;1.85;;;;;;;30.00;32.39;100522.38;1696195;83;21445;-76
2021/06/06 07:39:12;;;;;;;6.90;1.62;;;;;;;30.18;31.93;100525.64;1696235;84;20948;-77
2021/06/06 07:41:41;;;;;;;4.62;1.95;;;;;;;30.32;31.24;100524.46;1696406;83;20944;-78
2021/06/06 07:44:09;;;;;;;2.65;1.10;;;;;;;30.48;31.70;100519.50;1696324;84;20972;-78
2021/06/06 07:46:37;;;;;;;4.90;1.47;;;;;;;30.67;31.39;100525.21;1696403;83;21141;-77
2021/06/06 07:49:06;;;;;;;1.70;1.07;;;;;;;30.93;31.61;100526.80;1696391;84;20996;-79
2021/06/06 07:51:33;;;;;;;5.47;1.32;;;;;;;31.16;31.42;100523.88;1697023;84;21098;-78
2021/06/06 07:54:00;;;;;;;7.37;1.60;;;;;;;31.30;30.61;100524.49;1699159;79;20928;-80
2021/06/06 07:56:27;;;;;;;6.87;1.72;;;;;;;31.41;30.94;100523.69;1699720;79;21018;-84
2021/06/06 07:58:55;;;;;;;2.95;1.12;;;;;;;31.52;30.81;100532.41;1699248;84;21099;-82
2021/06/06 08:01:22;;;;;;;4.90;1.87;;;;;;;31.59;30.91;100525.02;1700858;83;20869;-83
2021/06/06 08:03:50;;;;;;;7.35;1.50;;;;;;;31.76;29.84;100525.14;1700722;84;20912;-84
2021/06/06 08:06:17;;;;;;;6.55;1.67;;;;;;;31.88;29.55;100524.31;1699139;84;21019;-88
2021/06/06 08:08:44;;;;;;;4.35;1.50;;;;;;;31.97;29.53;100521.57;1699314;84;20960;-82
2021/06/06 08:11:12;;;;;;;5.42;1.40;;;;;;;32.01;29.80;100522.22;1698840;84;21520;-84
2021/06/06 08:13:40;;;;;;;5.78;1.75;;;;;;;31.88;30.29;100519.71;1698967;84;20940;-81
2021/06/06 08:16:08;;;;;;;2.80;1.30;;;;;;;31.77;30.25;100523.25;1698929;84;20897;-84
2021/06/06 08:18:40;;;;;;;7.75;1.70;;;;;;;31.37;30.17;100519.28;1698949;84;20988;-84
2021/06/06 08:21:22;;;;;;;4.67;1.65;;;;;;;30.88;30.77;100516.33;1699104;84;20912;-82
2021/06/06 08:23:49;;;;;;;6.35;1.98;;;;;;;30.45;31.45;100519.97;1698185;83;21556;-79
2021/06/06 08:26:20;;;;;;;5.70;1.52;;;;;;;30.14;32.26;100518.48;1698908;84;21101;-82
2021/06/06 08:28:49;;;;;;;7.55;1.77;;;;;;;29.80;32.80;100512.28;1698682;84;20928;-81
2021/06/06 08:31:21;;;;;;;9.40;2.50;;;;;;;29.61;33.47;100519.47;1698638;84;20947;-83
2021/06/06 08:33:48;;;;;;;5.72;3.12;;;;;;;29.60;33.58;100515.94;1699042;83;20885;-80
2021/06/06 08:36:30;;;;;;;5.05;3.27;;;;;;;29.42;33.29;100523.45;1698765;84;21550;-82
2021/06/06 08:38:58;;;;;;;8.05;3.83;;;;;;;29.26;34.14;100520.77;1696629;84;20980;-83
2021/06/06 08:41:48;;;;;;;7.95;3.08;;;;;;;29.06;34.66;100518.65;1698717;83;20976;-83
2021/06/06 08:44:22;;;;;;;2.87;2.27;;;;;;;28.90;34.79;100515.44;1698678;83;21027;-83
2021/06/06 08:47:01;;;;;;;6.92;2.77;;;;;;;28.75;35.06;100518.08;1698927;84;20975;-84
2021/06/06 08:49:46;;;;;;;8.18;2.15;;;;;;;28.35;35.94;100518.19;1699035;83;21117;-82
2021/06/06 08:52:45;;;;;;;5.25;2.05;;;;;;;28.02;35.19;100518.58;1698750;84;20924;-86
2021/06/06 08:55:47;;;;;;;6.55;1.57;;;;;;;27.86;36.36;100520.37;1699585;83;20974;-82
2021/06/06 08:58:26;;;;;;;9.30;2.40;;;;;;;27.93;36.80;100508.23;1698774;84;20996;-83
2021/06/06 09:01:13;;;;;;;7.97;2.35;;;;;;;28.21;36.66;100517.40;1698381;83;20904;-83
2021/06/06 09:03:40;;;;;;;4.45;2.33;;;;;;;28.55;35.93;100512.77;1698309;83;21315;-85
2021/06/06 09:06:30;;;;;;;9.48;3.20;;;;;;;28.91;35.52;100514.91;1698855;84;21030;-83
2021/06/06 09:08:59;;;;;;;7.67;3.95;;;;;;;29.14;34.60;100513.86;1698666;84;20865;-80
2021/06/06 09:11:27;;;;;;;7.12;2.67;;;;;;;29.40;34.51;100521.50;1698730;83;20973;-83
2021/06/06 09:13:56;;;;;;;15.03;5.92;;;;;;;29.57;33.88;100515.05;1698715;84;20979;-84
2021/06/06 09:16:27;;;;;;;12.53;6.30;;;;;;;29.60;32.95;100515.13;1698891;84;21117;-82
2021/06/06 09:19:04;;;;;;;9.70;3.98;;;;;;;29.61;32.72;100517.58;1698895;84;21441;-82
2021/06/06 09:21:32;;;;;;;11.08;7.20;;;;;;;29.69;32.30;100513.30;1698950;84;20929;-83
2021/06/06 09:24:10;;;;;;;8.80;4.47;;;;;;;29.77;32.55;100512.20;1698829;83;21674;-83
2021/06/06 09:26:37;;;;;;;9.80;3.33;;;;;;;29.84;32.39;100514.85;1698990;84;20999;-86
2021/06/06 09:29:21;;;;;;;9.35;3.33;;;;;;;29.94;33.00;100521.38;1699038;84;21865;-82
2021/06/06 09:31:49;;;;;;;2.98;1.52;;;;;;;30.04;33.27;100516.84;1698672;84;20912;-82
2021/06/06 09:34:22;;;;;;;4.25;1.98;;;;;;;30.16;33.63;100516.91;1698845;84;20960;-82
2021/06/06 09:37:09;;;;;;;2.17;1.32;;;;;;;30.32;33.67;100520.94;1699564;84;20896;-84
2021/06/06 09:39:46;;;;;;;11.53;1.85;;;;;;;30.42;32.69;100520.43;1698693;83;20904;-84
2021/06/06 09:42:27;;;;;;;2.92;1.10;;;;;;;30.36;33.58;100524.85;1698930;84;21135;-82
2021/06/06 09:45:09;;;;;;;3.60;1.12;;;;;;;30.21;32.29;100516.24;1690800;84;21433;-80
2021/06/06 09:47:36;;;;;;;9.43;1.15;;;;;;;30.08;32.37;100511.29;1699093;84;21080;-83
2021/06/06 09:50:19;;;;;;;3.00;1.62;;;;;;;30.05;32.18;100508.19;1670883;84;21090;-85
2021/06/06 09:52:47;;;;;;;4.78;1.45;;;;;;;30.12;32.87;100514.35;1698826;84;21019;-83
2021/06/06 09:55:22;;;;;;;3.62;1.40;;;;;;;30.14;33.07;100514.95;1698792;83;21082;-83
2021/06/06 09:57:50;;;;;;;3.87;0.90;;;;;;;30.10;32.10;100512.39;1699105;83;20916;-81
2021/06/06 10:00:28;;;;;;;4.28;1.22;;;;;;;30.06;31.85;100510.68;1697533;83;20964;-83
2021/06/06 10:03:03;;;;;;;2.30;0.80;;;;;;;30.07;33.38;100508.27;1688706;85;20932;-83
2021/06/06 10:05:36;;;;;;;4.92;0.90;;;;;;;29.99;32.09;100511.25;1688854;85;20944;-85
2021/06/06 10:08:18;;;;;;;2.83;1.20;;;;;;;29.89;31.12;100515.83;1689356;84;20945;-87
2021/06/06 10:10:54;;;;;;;2.50;0.70;;;;;;;29.66;31.40;100516.42;1689867;85;20968;-87
2021/06/06 10:13:29;;;;;;;5.22;1.15;;;;;;;29.42;31.85;100509.13;1688647;82;20968;-86
2021/06/06 10:15:59;;;;;;;5.08;1.55;;;;;;;29.30;32.51;100509.83;1691369;85;20986;-77
2021/06/06 10:18:36;;;;;;;4.30;0.75;;;;;;;29.28;32.74;100513.77;1688619;85;20924;-73
2021/06/06 10:21:30;;;;;;;4.60;1.42;;;;;;;29.16;32.81;100506.08;1688456;83;21143;-72
2021/06/06 10:24:02;;;;;;;1.40;1.25;;;;;;;29.08;33.76;100511.16;1688359;83;20968;-74
2021/06/06 10:26:41;;;;;;;4.80;1.40;;;;;;;29.00;33.51;100505.52;1688205;84;20900;-73
2021/06/06 10:29:33;;;;;;;5.12;1.20;;;;;;;28.90;32.85;100507.84;1688939;85;20917;-74
2021/06/06 10:32:14;;;;;;;5.45;1.20;;;;;;;28.75;33.84;100502.73;1688460;85;21116;-75
2021/06/06 10:34:59;;;;;;;5.60;1.27;;;;;;;28.67;33.99;100500.27;1688834;85;21085;-76
2021/06/06 10:37:26;;;;;;;4.83;1.50;;;;;;;28.68;34.61;100501.91;1688529;84;21001;-73
2021/06/06 10:39:57;;;;;;;1.10;0.90;;;;;;;28.80;34.25;100495.34;1688623;83;21015;-73
2021/06/06 10:42:51;;;;;;;4.72;1.22;;;;;;;28.79;34.21;100490.47;1688522;85;21016;-74
2021/06/06 10:45:31;;;;;;;3.35;1.25;;;;;;;28.79;35.30;100490.97;1688761;85;21647;-74
2021/06/06 10:48:19;;;;;;;2.85;1.47;;;;;;;28.82;34.32;100497.31;1688332;85;23054;-76
2021/06/06 10:50:49;;;;;;;2.77;1.17;;;;;;;28.73;34.71;100490.80;1688280;84;20921;-75
2021/06/06 10:53:25;;;;;;;3.60;1.12;;;;;;;28.79;34.59;100489.13;1688447;85;20956;-76
2021/06/06 10:56:07;;;;;;;4.00;1.35;;;;;;;28.86;35.22;100497.19;1688512;83;21058;-78
2021/06/06 10:58:50;;;;;;;3.02;1.20;;;;;;;28.83;34.17;100490.33;1688528;85;21098;-77
2021/06/06 11:01:21;;;;;;;;;;;;;;;28.70;34.99;100490.39;1690998;83;21150;-78
2021/06/06 11:03:51;;;;;;;10.35;1.55;;;;;;;28.59;35.72;100482.47;1688498;83;20127;-77
2021/06/06 11:06:29;;;;;;;4.03;0.98;;;;;;;28.60;35.12;100482.77;1688455;83;20909;-76
2021/06/06 11:08:57;;;;;;;1.80;0.62;;;;;;;28.64;34.62;100479.95;1688466;83;21008;-75
2021/06/06 11:11:37;;;;;;;2.58;0.85;;;;;;;28.68;34.95;100477.13;1690201;83;20956;-75
2021/06/06 11:14:18;;;;;;;3.50;0.95;;;;;;;28.72;34.83;100477.02;1688632;85;21827;-73
2021/06/06 11:16:50;;;;;;;1.72;0.88;;;;;;;28.71;33.79;100479.91;1688407;85;21012;-73
2021/06/06 11:19:30;;;;;;;4.90;2.15;;;;;;;28.73;34.37;100481.88;1688697;83;20877;-72
2021/06/06 11:22:17;;;;;;;3.72;1.02;;;;;;;28.71;34.37;100471.82;1688383;85;20937;-74
2021/06/06 11:24:48;;;;;;;5.83;1.30;;;;;;;28.68;34.26;100481.67;1688572;85;20937;-77
2021/06/06 11:27:29;;;;;;;3.17;0.95;;;;;;;28.54;34.66;100476.05;1688416;85;21000;-76
2021/06/06 11:30:23;;;;;;;3.02;1.00;;;;;;;28.40;34.73;100481.98;1688698;85;20980;-77
2021/06/06 11:32:58;;;;;;;5.28;0.90;;;;;;;28.14;35.50;100478.31;1688368;83;21401;-78
2021/06/06 11:35:40;;;;;;;2.75;0.80;;;;;;;27.86;35.45;100472.67;1688700;83;20968;-78
2021/06/06 11:38:44;;;;;;;2.15;0.72;;;;;;;27.70;35.91;100480.64;1688485;85;20932;-77
2021/06/06 11:41:27;;;;;;;2.25;0.95;;;;;;;27.49;37.82;100483.02;1688473;83;21128;-78
2021/06/06 11:44:21;;;;;;;1.75;1.15;;;;;;;27.16;38.80;100484.81;1688405;83;21007;-76
2021/06/06 11:47:24;;;;;;;3.98;0.98;;;;;;;26.83;39.31;100484.20;1689845;85;21437;-77
2021/06/06 11:50:26;;;;;;;6.80;1.30;;;;;;;26.49;39.29;100483.75;1688362;85;21031;-79
2021/06/06 11:53:03;;;;;;;2.37;1.00;;;;;;;26.12;39.33;100477.75;1688629;85;20888;-77